sensor_id;sensor_type;location;lat;lon;timestamp;temperature;humidity
36690;DHT22;22676;51.120;3.702;2024-01-27T00:01:15;22.20;43.90
36690;DHT22;22676;51.120;3.702;2024-01-27T00:03:41;22.20;43.90
36690;DHT22;22676;51.120;3.702;2024-01-27T00:06:06;22.20;44.50
36690;DHT22;22676;51.120;3.702;2024-01-27T00:08:32;22.30;43.90
36690;DHT22;22676;51.120;3.702;2024-01-27T00:10:58;22.30;42.70
36690;DHT22;22676;51.120;3.702;2024-01-27T00:13:23;22.50;42.80
36690;DHT22;22676;51.120;3.702;2024-01-27T00:15:49;22.50;44.00
36690;DHT22;22676;51.120;3.702;2024-01-27T00:18:15;22.50;44.00
36690;DHT22;22676;51.120;3.702;2024-01-27T00:20:44;22.50;44.10
36690;DHT22;22676;51.120;3.702;2024-01-27T00:23:09;22.60;43.70
36690;DHT22;22676;51.120;3.702;2024-01-27T00:25:35;22.60;44.20
36690;DHT22;22676;51.120;3.702;2024-01-27T00:28:00;22.60;44.20
36690;DHT22;22676;51.120;3.702;2024-01-27T00:30:26;22.70;44.20
36690;DHT22;22676;51.120;3.702;2024-01-27T00:32:52;22.60;44.00
36690;DHT22;22676;51.120;3.702;2024-01-27T00:35:17;22.60;43.90
36690;DHT22;22676;51.120;3.702;2024-01-27T00:37:43;22.50;44.00
36690;DHT22;22676;51.120;3.702;2024-01-27T00:40:12;22.50;43.40
36690;DHT22;22676;51.120;3.702;2024-01-27T00:42:38;22.50;43.30
36690;DHT22;22676;51.120;3.702;2024-01-27T00:45:04;22.50;43.40
36690;DHT22;22676;51.120;3.702;2024-01-27T00:47:30;22.50;43.40
36690;DHT22;22676;51.120;3.702;2024-01-27T00:49:56;22.40;43.40
36690;DHT22;22676;51.120;3.702;2024-01-27T00:52:22;22.40;43.30
36690;DHT22;22676;51.120;3.702;2024-01-27T00:54:48;22.40;43.30
36690;DHT22;22676;51.120;3.702;2024-01-27T00:57:13;22.40;43.30
36690;DHT22;22676;51.120;3.702;2024-01-27T00:59:39;22.40;43.30
36690;DHT22;22676;51.120;3.702;2024-01-27T01:02:06;22.40;43.20
36690;DHT22;22676;51.120;3.702;2024-01-27T01:04:32;22.40;43.80
36690;DHT22;22676;51.120;3.702;2024-01-27T01:06:58;22.40;43.10
36690;DHT22;22676;51.120;3.702;2024-01-27T01:09:24;22.40;42.40
36690;DHT22;22676;51.120;3.702;2024-01-27T01:11:50;22.40;41.90
36690;DHT22;22676;51.120;3.702;2024-01-27T01:14:15;22.40;41.80
36690;DHT22;22676;51.120;3.702;2024-01-27T01:16:41;22.50;43.10
36690;DHT22;22676;51.120;3.702;2024-01-27T01:19:07;22.40;43.60
36690;DHT22;22676;51.120;3.702;2024-01-27T01:21:32;22.40;43.10
36690;DHT22;22676;51.120;3.702;2024-01-27T01:23:58;22.40;43.00
36690;DHT22;22676;51.120;3.702;2024-01-27T01:26:27;22.40;43.00
36690;DHT22;22676;51.120;3.702;2024-01-27T01:28:52;22.40;43.00
36690;DHT22;22676;51.120;3.702;2024-01-27T01:31:18;22.40;43.10
36690;DHT22;22676;51.120;3.702;2024-01-27T01:33:44;22.30;42.90
36690;DHT22;22676;51.120;3.702;2024-01-27T01:36:09;22.40;43.00
36690;DHT22;22676;51.120;3.702;2024-01-27T01:38:35;22.30;42.90
36690;DHT22;22676;51.120;3.702;2024-01-27T01:41:01;22.30;42.80
36690;DHT22;22676;51.120;3.702;2024-01-27T01:43:27;22.30;42.80
36690;DHT22;22676;51.120;3.702;2024-01-27T01:45:53;22.30;42.80
36690;DHT22;22676;51.120;3.702;2024-01-27T01:48:21;22.40;42.80
36690;DHT22;22676;51.120;3.702;2024-01-27T01:50:47;22.30;42.80
36690;DHT22;22676;51.120;3.702;2024-01-27T01:53:13;22.30;42.80
36690;DHT22;22676;51.120;3.702;2024-01-27T01:55:39;22.30;42.80
36690;DHT22;22676;51.120;3.702;2024-01-27T01:58:05;22.30;42.70
36690;DHT22;22676;51.120;3.702;2024-01-27T02:00:32;22.30;42.70
36690;DHT22;22676;51.120;3.702;2024-01-27T02:02:57;22.30;42.80
36690;DHT22;22676;51.120;3.702;2024-01-27T02:05:24;22.30;42.80
36690;DHT22;22676;51.120;3.702;2024-01-27T02:07:50;22.30;42.40
36690;DHT22;22676;51.120;3.702;2024-01-27T02:10:17;22.40;41.70
36690;DHT22;22676;51.120;3.702;2024-01-27T02:12:43;22.40;41.50
36690;DHT22;22676;51.120;3.702;2024-01-27T02:15:13;22.30;42.00
36690;DHT22;22676;51.120;3.702;2024-01-27T02:17:39;22.40;42.30
36690;DHT22;22676;51.120;3.702;2024-01-27T02:20:08;22.40;42.00
36690;DHT22;22676;51.120;3.702;2024-01-27T02:22:34;22.50;42.10
36690;DHT22;22676;51.120;3.702;2024-01-27T02:25:01;22.40;42.00
36690;DHT22;22676;51.120;3.702;2024-01-27T02:27:27;22.40;42.10
36690;DHT22;22676;51.120;3.702;2024-01-27T02:29:52;22.40;42.10
36690;DHT22;22676;51.120;3.702;2024-01-27T02:32:18;22.40;42.10
36690;DHT22;22676;51.120;3.702;2024-01-27T02:34:44;22.40;42.10
36690;DHT22;22676;51.120;3.702;2024-01-27T02:37:10;22.30;42.10
36690;DHT22;22676;51.120;3.702;2024-01-27T02:39:36;22.30;42.20
36690;DHT22;22676;51.120;3.702;2024-01-27T02:42:02;22.30;42.10
36690;DHT22;22676;51.120;3.702;2024-01-27T02:44:27;22.30;42.10
36690;DHT22;22676;51.120;3.702;2024-01-27T02:46:53;22.30;42.10
36690;DHT22;22676;51.120;3.702;2024-01-27T02:49:18;22.30;42.10
36690;DHT22;22676;51.120;3.702;2024-01-27T02:51:44;22.40;42.20
36690;DHT22;22676;51.120;3.702;2024-01-27T02:54:10;22.30;42.00
36690;DHT22;22676;51.120;3.702;2024-01-27T02:56:35;22.40;42.10
36690;DHT22;22676;51.120;3.702;2024-01-27T02:59:01;22.30;42.20
36690;DHT22;22676;51.120;3.702;2024-01-27T03:01:27;22.30;42.20
36690;DHT22;22676;51.120;3.702;2024-01-27T03:03:52;22.20;42.70
36690;DHT22;22676;51.120;3.702;2024-01-27T03:06:18;22.30;42.10
36690;DHT22;22676;51.120;3.702;2024-01-27T03:08:44;22.30;41.60
36690;DHT22;22676;51.120;3.702;2024-01-27T03:11:09;22.30;41.00
36690;DHT22;22676;51.120;3.702;2024-01-27T03:13:35;22.30;41.10
36690;DHT22;22676;51.120;3.702;2024-01-27T03:16:00;22.30;41.40
36690;DHT22;22676;51.120;3.702;2024-01-27T03:18:26;22.30;41.70
36690;DHT22;22676;51.120;3.702;2024-01-27T03:20:52;22.30;41.80
36690;DHT22;22676;51.120;3.702;2024-01-27T03:23:17;22.20;41.80
36690;DHT22;22676;51.120;3.702;2024-01-27T03:25:43;22.20;41.90
36690;DHT22;22676;51.120;3.702;2024-01-27T03:28:09;22.20;42.00
36690;DHT22;22676;51.120;3.702;2024-01-27T03:30:34;22.20;42.10
36690;DHT22;22676;51.120;3.702;2024-01-27T03:33:00;22.20;42.00
36690;DHT22;22676;51.120;3.702;2024-01-27T03:35:26;22.20;42.00
36690;DHT22;22676;51.120;3.702;2024-01-27T03:37:51;22.20;42.10
36690;DHT22;22676;51.120;3.702;2024-01-27T03:40:17;22.20;42.00
36690;DHT22;22676;51.120;3.702;2024-01-27T03:42:43;22.20;42.10
36690;DHT22;22676;51.120;3.702;2024-01-27T03:45:09;22.20;42.00
36690;DHT22;22676;51.120;3.702;2024-01-27T03:47:34;22.20;42.10
36690;DHT22;22676;51.120;3.702;2024-01-27T03:50:00;22.20;42.10
36690;DHT22;22676;51.120;3.702;2024-01-27T03:52:26;22.10;42.00
36690;DHT22;22676;51.120;3.702;2024-01-27T03:54:51;22.20;42.10
36690;DHT22;22676;51.120;3.702;2024-01-27T03:57:17;22.10;42.00
36690;DHT22;22676;51.120;3.702;2024-01-27T03:59:43;22.10;42.00
36690;DHT22;22676;51.120;3.702;2024-01-27T04:02:08;22.10;42.00
36690;DHT22;22676;51.120;3.702;2024-01-27T04:04:34;22.20;42.20
36690;DHT22;22676;51.120;3.702;2024-01-27T04:06:59;22.10;41.60
36690;DHT22;22676;51.120;3.702;2024-01-27T04:09:27;22.20;41.30
36690;DHT22;22676;51.120;3.702;2024-01-27T04:11:52;22.20;40.80
36690;DHT22;22676;51.120;3.702;2024-01-27T04:14:18;22.20;41.00
36690;DHT22;22676;51.120;3.702;2024-01-27T04:16:44;22.20;41.30
36690;DHT22;22676;51.120;3.702;2024-01-27T04:19:09;22.10;41.50
36690;DHT22;22676;51.120;3.702;2024-01-27T04:21:35;22.10;41.50
36690;DHT22;22676;51.120;3.702;2024-01-27T04:24:01;22.10;42.10
36690;DHT22;22676;51.120;3.702;2024-01-27T04:26:27;22.10;41.70
36690;DHT22;22676;51.120;3.702;2024-01-27T04:28:52;22.10;41.70
36690;DHT22;22676;51.120;3.702;2024-01-27T04:31:18;22.10;41.70
36690;DHT22;22676;51.120;3.702;2024-01-27T04:33:44;22.10;41.80
36690;DHT22;22676;51.120;3.702;2024-01-27T04:36:10;22.10;41.80
36690;DHT22;22676;51.120;3.702;2024-01-27T04:38:36;22.00;41.80
36690;DHT22;22676;51.120;3.702;2024-01-27T04:41:01;22.00;41.80
36690;DHT22;22676;51.120;3.702;2024-01-27T04:43:28;22.10;42.00
36690;DHT22;22676;51.120;3.702;2024-01-27T04:45:54;22.00;41.80
36690;DHT22;22676;51.120;3.702;2024-01-27T04:48:20;22.00;41.90
36690;DHT22;22676;51.120;3.702;2024-01-27T04:50:46;22.00;41.90
36690;DHT22;22676;51.120;3.702;2024-01-27T04:53:12;22.00;41.90
36690;DHT22;22676;51.120;3.702;2024-01-27T04:55:37;22.10;42.00
36690;DHT22;22676;51.120;3.702;2024-01-27T04:58:04;22.00;41.90
36690;DHT22;22676;51.120;3.702;2024-01-27T05:00:30;22.00;42.00
36690;DHT22;22676;51.120;3.702;2024-01-27T05:02:55;22.00;42.60
36690;DHT22;22676;51.120;3.702;2024-01-27T05:05:22;22.00;42.00
36690;DHT22;22676;51.120;3.702;2024-01-27T05:07:48;22.00;41.60
36690;DHT22;22676;51.120;3.702;2024-01-27T05:10:15;22.00;41.00
36690;DHT22;22676;51.120;3.702;2024-01-27T05:12:41;22.10;40.90
36690;DHT22;22676;51.120;3.702;2024-01-27T05:15:07;22.10;41.10
36690;DHT22;22676;51.120;3.702;2024-01-27T05:17:33;22.00;41.50
36690;DHT22;22676;51.120;3.702;2024-01-27T05:19:59;22.00;41.50
36690;DHT22;22676;51.120;3.702;2024-01-27T05:22:25;22.00;41.50
36690;DHT22;22676;51.120;3.702;2024-01-27T05:24:51;22.00;41.60
36690;DHT22;22676;51.120;3.702;2024-01-27T05:27:16;22.00;41.60
36690;DHT22;22676;51.120;3.702;2024-01-27T05:29:42;22.00;41.60
36690;DHT22;22676;51.120;3.702;2024-01-27T05:32:08;21.90;41.50
36690;DHT22;22676;51.120;3.702;2024-01-27T05:34:33;22.00;41.70
36690;DHT22;22676;51.120;3.702;2024-01-27T05:36:59;22.20;41.30
36690;DHT22;22676;51.120;3.702;2024-01-27T05:39:25;22.20;41.20
36690;DHT22;22676;51.120;3.702;2024-01-27T05:41:50;22.10;41.20
36690;DHT22;22676;51.120;3.702;2024-01-27T05:44:16;22.10;41.30
36690;DHT22;22676;51.120;3.702;2024-01-27T05:46:41;22.00;41.30
36690;DHT22;22676;51.120;3.702;2024-01-27T05:49:07;22.00;41.40
36690;DHT22;22676;51.120;3.702;2024-01-27T05:51:32;22.00;41.40
36690;DHT22;22676;51.120;3.702;2024-01-27T05:53:59;21.90;41.40
36690;DHT22;22676;51.120;3.702;2024-01-27T05:56:25;21.90;41.50
36690;DHT22;22676;51.120;3.702;2024-01-27T05:58:50;21.80;41.50
36690;DHT22;22676;51.120;3.702;2024-01-27T06:01:18;21.80;41.60
36690;DHT22;22676;51.120;3.702;2024-01-27T06:03:44;21.80;41.70
36690;DHT22;22676;51.120;3.702;2024-01-27T06:06:10;21.70;42.10
36690;DHT22;22676;51.120;3.702;2024-01-27T06:08:36;21.70;41.40
36690;DHT22;22676;51.120;3.702;2024-01-27T06:11:02;21.70;41.30
36690;DHT22;22676;51.120;3.702;2024-01-27T06:13:30;21.70;41.40
36690;DHT22;22676;51.120;3.702;2024-01-27T06:15:58;21.70;41.50
36690;DHT22;22676;51.120;3.702;2024-01-27T06:18:24;21.80;41.50
36690;DHT22;22676;51.120;3.702;2024-01-27T06:20:50;21.80;41.60
36690;DHT22;22676;51.120;3.702;2024-01-27T06:23:15;21.90;41.50
36690;DHT22;22676;51.120;3.702;2024-01-27T06:25:42;21.90;41.40
36690;DHT22;22676;51.120;3.702;2024-01-27T06:28:07;21.90;41.30
36690;DHT22;22676;51.120;3.702;2024-01-27T06:30:33;22.00;41.90
36690;DHT22;22676;51.120;3.702;2024-01-27T06:32:59;22.00;41.30
36690;DHT22;22676;51.120;3.702;2024-01-27T06:35:24;22.10;41.20
36690;DHT22;22676;51.120;3.702;2024-01-27T06:37:50;22.10;41.10
36690;DHT22;22676;51.120;3.702;2024-01-27T06:40:16;22.10;41.00
36690;DHT22;22676;51.120;3.702;2024-01-27T06:42:41;22.20;41.00
36690;DHT22;22676;51.120;3.702;2024-01-27T06:45:07;22.30;41.50
36690;DHT22;22676;51.120;3.702;2024-01-27T06:47:33;22.30;40.90
36690;DHT22;22676;51.120;3.702;2024-01-27T06:49:58;22.40;40.90
36690;DHT22;22676;51.120;3.702;2024-01-27T06:52:24;22.40;40.70
36690;DHT22;22676;51.120;3.702;2024-01-27T06:54:49;22.50;40.70
36690;DHT22;22676;51.120;3.702;2024-01-27T06:59:47;22.60;40.50
36690;DHT22;22676;51.120;3.702;2024-01-27T07:02:23;22.60;40.50
36690;DHT22;22676;51.120;3.702;2024-01-27T07:04:49;22.70;40.40
36690;DHT22;22676;51.120;3.702;2024-01-27T07:07:15;22.80;40.00
36690;DHT22;22676;51.120;3.702;2024-01-27T07:09:40;22.80;39.40
36690;DHT22;22676;51.120;3.702;2024-01-27T07:12:06;22.80;39.40
36690;DHT22;22676;51.120;3.702;2024-01-27T07:14:32;22.90;39.80
36690;DHT22;22676;51.120;3.702;2024-01-27T07:16:58;22.90;39.90
36690;DHT22;22676;51.120;3.702;2024-01-27T07:19:23;23.00;40.00
36690;DHT22;22676;51.120;3.702;2024-01-27T07:21:50;23.00;39.80
36690;DHT22;22676;51.120;3.702;2024-01-27T07:24:15;23.10;39.80
36690;DHT22;22676;51.120;3.702;2024-01-27T07:26:41;23.10;39.70
36690;DHT22;22676;51.120;3.702;2024-01-27T07:29:07;23.10;39.70
36690;DHT22;22676;51.120;3.702;2024-01-27T07:31:33;23.20;39.70
36690;DHT22;22676;51.120;3.702;2024-01-27T07:33:59;23.20;39.60
36690;DHT22;22676;51.120;3.702;2024-01-27T07:36:24;23.30;39.70
36690;DHT22;22676;51.120;3.702;2024-01-27T07:38:51;23.30;39.60
36690;DHT22;22676;51.120;3.702;2024-01-27T07:41:17;23.40;39.40
36690;DHT22;22676;51.120;3.702;2024-01-27T07:43:42;23.40;39.20
36690;DHT22;22676;51.120;3.702;2024-01-27T07:46:08;23.40;39.10
36690;DHT22;22676;51.120;3.702;2024-01-27T07:48:34;23.50;39.10
36690;DHT22;22676;51.120;3.702;2024-01-27T07:50:59;23.50;39.00
36690;DHT22;22676;51.120;3.702;2024-01-27T07:53:25;23.50;39.00
36690;DHT22;22676;51.120;3.702;2024-01-27T07:55:51;23.50;39.00
36690;DHT22;22676;51.120;3.702;2024-01-27T07:58:19;23.50;39.20
36690;DHT22;22676;51.120;3.702;2024-01-27T08:00:45;23.40;39.20
36690;DHT22;22676;51.120;3.702;2024-01-27T08:03:10;23.40;39.50
36690;DHT22;22676;51.120;3.702;2024-01-27T08:05:36;23.30;39.50
36690;DHT22;22676;51.120;3.702;2024-01-27T08:08:01;23.20;39.00
36690;DHT22;22676;51.120;3.702;2024-01-27T08:10:27;23.20;38.80
36690;DHT22;22676;51.120;3.702;2024-01-27T08:12:53;23.10;39.40
36690;DHT22;22676;51.120;3.702;2024-01-27T08:15:18;23.00;39.80
36690;DHT22;22676;51.120;3.702;2024-01-27T08:17:44;23.00;39.90
36690;DHT22;22676;51.120;3.702;2024-01-27T08:20:10;22.90;40.00
36690;DHT22;22676;51.120;3.702;2024-01-27T08:22:35;22.90;40.40
36690;DHT22;22676;51.120;3.702;2024-01-27T08:25:01;22.80;40.50
36690;DHT22;22676;51.120;3.702;2024-01-27T08:27:27;22.80;40.60
36690;DHT22;22676;51.120;3.702;2024-01-27T08:29:52;22.80;40.80
36690;DHT22;22676;51.120;3.702;2024-01-27T08:32:18;22.80;41.00
36690;DHT22;22676;51.120;3.702;2024-01-27T08:34:44;22.80;41.10
36690;DHT22;22676;51.120;3.702;2024-01-27T08:37:18;22.80;41.20
36690;DHT22;22676;51.120;3.702;2024-01-27T08:39:45;22.80;41.40
36690;DHT22;22676;51.120;3.702;2024-01-27T08:42:11;22.70;41.40
36690;DHT22;22676;51.120;3.702;2024-01-27T08:44:37;22.70;41.60
36690;DHT22;22676;51.120;3.702;2024-01-27T08:47:03;22.70;41.70
36690;DHT22;22676;51.120;3.702;2024-01-27T08:49:29;22.70;41.80
36690;DHT22;22676;51.120;3.702;2024-01-27T08:51:55;22.70;41.90
36690;DHT22;22676;51.120;3.702;2024-01-27T08:54:21;22.60;42.00
36690;DHT22;22676;51.120;3.702;2024-01-27T08:56:47;22.60;42.20
36690;DHT22;22676;51.120;3.702;2024-01-27T08:59:12;22.60;42.30
36690;DHT22;22676;51.120;3.702;2024-01-27T09:01:38;22.70;42.50
36690;DHT22;22676;51.120;3.702;2024-01-27T09:04:04;22.60;42.70
36690;DHT22;22676;51.120;3.702;2024-01-27T09:06:29;22.60;42.60
36690;DHT22;22676;51.120;3.702;2024-01-27T09:08:55;22.60;42.50
36690;DHT22;22676;51.120;3.702;2024-01-27T09:11:21;22.50;42.10
36690;DHT22;22676;51.120;3.702;2024-01-27T09:13:49;22.50;42.30
36690;DHT22;22676;51.120;3.702;2024-01-27T09:16:17;22.50;42.30
36690;DHT22;22676;51.120;3.702;2024-01-27T09:18:43;22.50;42.50
36690;DHT22;22676;51.120;3.702;2024-01-27T09:21:09;22.50;42.70
36690;DHT22;22676;51.120;3.702;2024-01-27T09:23:35;22.40;42.80
36690;DHT22;22676;51.120;3.702;2024-01-27T09:26:01;22.50;43.10
36690;DHT22;22676;51.120;3.702;2024-01-27T09:28:26;22.40;43.10
36690;DHT22;22676;51.120;3.702;2024-01-27T09:30:52;22.40;43.30
36690;DHT22;22676;51.120;3.702;2024-01-27T09:33:18;22.40;43.40
36690;DHT22;22676;51.120;3.702;2024-01-27T09:35:45;22.40;44.00
36690;DHT22;22676;51.120;3.702;2024-01-27T09:38:12;22.30;43.50
36690;DHT22;22676;51.120;3.702;2024-01-27T09:40:40;22.30;43.60
36690;DHT22;22676;51.120;3.702;2024-01-27T09:43:05;22.40;44.00
36690;DHT22;22676;51.120;3.702;2024-01-27T09:45:32;22.40;44.00
36690;DHT22;22676;51.120;3.702;2024-01-27T09:48:00;22.40;43.80
36690;DHT22;22676;51.120;3.702;2024-01-27T09:50:26;22.30;44.00
36690;DHT22;22676;51.120;3.702;2024-01-27T09:52:52;22.30;44.20
36690;DHT22;22676;51.120;3.702;2024-01-27T09:55:18;22.30;44.40
36690;DHT22;22676;51.120;3.702;2024-01-27T09:57:44;22.30;44.50
36690;DHT22;22676;51.120;3.702;2024-01-27T10:00:11;22.30;44.50
36690;DHT22;22676;51.120;3.702;2024-01-27T10:02:40;22.30;44.30
36690;DHT22;22676;51.120;3.702;2024-01-27T10:05:08;22.30;44.30
36690;DHT22;22676;51.120;3.702;2024-01-27T10:07:34;22.30;43.90
36690;DHT22;22676;51.120;3.702;2024-01-27T10:10:00;22.30;43.60
36690;DHT22;22676;51.120;3.702;2024-01-27T10:12:26;22.20;43.50
36690;DHT22;22676;51.120;3.702;2024-01-27T10:14:53;22.20;43.90
36690;DHT22;22676;51.120;3.702;2024-01-27T10:17:22;22.20;44.10
36690;DHT22;22676;51.120;3.702;2024-01-27T10:20:05;22.20;44.10
36690;DHT22;22676;51.120;3.702;2024-01-27T10:22:40;22.30;44.00
36690;DHT22;22676;51.120;3.702;2024-01-27T10:25:09;22.30;43.90
36690;DHT22;22676;51.120;3.702;2024-01-27T10:27:35;22.30;43.80
36690;DHT22;22676;51.120;3.702;2024-01-27T10:30:01;22.30;43.70
36690;DHT22;22676;51.120;3.702;2024-01-27T10:32:28;22.20;44.00
36690;DHT22;22676;51.120;3.702;2024-01-27T10:35:06;22.20;43.90
36690;DHT22;22676;51.120;3.702;2024-01-27T10:37:36;22.20;44.10
36690;DHT22;22676;51.120;3.702;2024-01-27T10:40:06;22.30;44.00
36690;DHT22;22676;51.120;3.702;2024-01-27T10:42:36;22.30;44.00
36690;DHT22;22676;51.120;3.702;2024-01-27T10:45:03;22.40;44.10
36690;DHT22;22676;51.120;3.702;2024-01-27T10:47:30;22.50;44.20
36690;DHT22;22676;51.120;3.702;2024-01-27T10:49:58;22.40;44.20
36690;DHT22;22676;51.120;3.702;2024-01-27T10:52:27;22.40;44.30
36690;DHT22;22676;51.120;3.702;2024-01-27T10:55:01;22.50;44.60
36690;DHT22;22676;51.120;3.702;2024-01-27T10:57:29;22.50;44.30
36690;DHT22;22676;51.120;3.702;2024-01-27T11:00:00;22.60;44.20
36690;DHT22;22676;51.120;3.702;2024-01-27T11:02:28;22.70;44.10
36690;DHT22;22676;51.120;3.702;2024-01-27T11:04:56;22.70;44.20
36690;DHT22;22676;51.120;3.702;2024-01-27T11:07:23;22.70;43.90
36690;DHT22;22676;51.120;3.702;2024-01-27T11:09:49;22.70;43.60
36690;DHT22;22676;51.120;3.702;2024-01-27T11:12:18;22.60;43.60
36690;DHT22;22676;51.120;3.702;2024-01-27T11:14:49;22.70;44.00
36690;DHT22;22676;51.120;3.702;2024-01-27T11:17:17;22.90;43.60
36690;DHT22;22676;51.120;3.702;2024-01-27T11:19:44;22.90;43.40
36690;DHT22;22676;51.120;3.702;2024-01-27T11:22:24;22.90;43.40
36690;DHT22;22676;51.120;3.702;2024-01-27T11:24:52;22.80;42.80
36690;DHT22;22676;51.120;3.702;2024-01-27T11:27:17;22.70;43.10
36690;DHT22;22676;51.120;3.702;2024-01-27T11:29:47;22.60;43.00
36690;DHT22;22676;51.120;3.702;2024-01-27T11:32:15;22.50;42.20
36690;DHT22;22676;51.120;3.702;2024-01-27T11:34:44;22.40;42.90
36690;DHT22;22676;51.120;3.702;2024-01-27T11:37:14;22.50;43.10
36690;DHT22;22676;51.120;3.702;2024-01-27T11:39:40;22.50;42.80
36690;DHT22;22676;51.120;3.702;2024-01-27T11:42:10;22.50;42.80
36690;DHT22;22676;51.120;3.702;2024-01-27T11:44:40;22.50;42.90
36690;DHT22;22676;51.120;3.702;2024-01-27T11:47:17;22.40;42.90
36690;DHT22;22676;51.120;3.702;2024-01-27T11:49:43;22.40;43.30
36690;DHT22;22676;51.120;3.702;2024-01-27T11:52:09;22.40;43.80
36690;DHT22;22676;51.120;3.702;2024-01-27T11:54:35;22.50;43.80
36690;DHT22;22676;51.120;3.702;2024-01-27T11:57:04;22.50;43.70
36690;DHT22;22676;51.120;3.702;2024-01-27T11:59:29;22.50;43.70
36690;DHT22;22676;51.120;3.702;2024-01-27T12:01:55;22.50;43.60
36690;DHT22;22676;51.120;3.702;2024-01-27T12:04:21;22.50;43.80
36690;DHT22;22676;51.120;3.702;2024-01-27T12:06:47;22.50;44.90
36690;DHT22;22676;51.120;3.702;2024-01-27T12:09:12;22.40;44.60
36690;DHT22;22676;51.120;3.702;2024-01-27T12:11:39;22.50;44.40
36690;DHT22;22676;51.120;3.702;2024-01-27T12:14:06;22.50;45.10
36690;DHT22;22676;51.120;3.702;2024-01-27T12:16:32;22.50;44.90
36690;DHT22;22676;51.120;3.702;2024-01-27T12:18:57;22.50;45.60
36690;DHT22;22676;51.120;3.702;2024-01-27T12:21:23;22.40;45.00
36690;DHT22;22676;51.120;3.702;2024-01-27T12:23:58;22.40;45.00
36690;DHT22;22676;51.120;3.702;2024-01-27T12:26:31;22.40;45.00
36690;DHT22;22676;51.120;3.702;2024-01-27T12:28:57;22.40;45.30
36690;DHT22;22676;51.120;3.702;2024-01-27T12:31:27;22.40;45.40
36690;DHT22;22676;51.120;3.702;2024-01-27T12:33:56;22.40;45.70
36690;DHT22;22676;51.120;3.702;2024-01-27T12:36:24;22.40;45.90
36690;DHT22;22676;51.120;3.702;2024-01-27T12:38:57;22.50;45.30
36690;DHT22;22676;51.120;3.702;2024-01-27T12:41:25;22.50;45.50
36690;DHT22;22676;51.120;3.702;2024-01-27T12:43:51;22.60;45.40
36690;DHT22;22676;51.120;3.702;2024-01-27T12:46:16;22.70;45.40
36690;DHT22;22676;51.120;3.702;2024-01-27T12:48:43;22.70;44.80
36690;DHT22;22676;51.120;3.702;2024-01-27T12:51:09;22.80;45.20
36690;DHT22;22676;51.120;3.702;2024-01-27T12:53:34;22.80;45.30
36690;DHT22;22676;51.120;3.702;2024-01-27T12:56:00;22.90;45.40
36690;DHT22;22676;51.120;3.702;2024-01-27T12:58:26;22.90;45.30
36690;DHT22;22676;51.120;3.702;2024-01-27T13:00:51;22.90;45.40
36690;DHT22;22676;51.120;3.702;2024-01-27T13:03:17;23.00;45.50
36690;DHT22;22676;51.120;3.702;2024-01-27T13:05:43;23.00;44.80
36690;DHT22;22676;51.120;3.702;2024-01-27T13:08:09;23.00;43.90
36690;DHT22;22676;51.120;3.702;2024-01-27T13:10:35;22.90;44.80
36690;DHT22;22676;51.120;3.702;2024-01-27T13:13:01;23.00;45.20
36690;DHT22;22676;51.120;3.702;2024-01-27T13:15:27;23.00;45.20
36690;DHT22;22676;51.120;3.702;2024-01-27T13:17:52;23.10;45.10
36690;DHT22;22676;51.120;3.702;2024-01-27T13:20:18;23.20;45.30
36690;DHT22;22676;51.120;3.702;2024-01-27T13:22:43;23.20;45.50
36690;DHT22;22676;51.120;3.702;2024-01-27T13:25:10;23.30;45.70
36690;DHT22;22676;51.120;3.702;2024-01-27T13:27:36;23.30;45.70
36690;DHT22;22676;51.120;3.702;2024-01-27T13:30:02;23.40;45.90
36690;DHT22;22676;51.120;3.702;2024-01-27T13:32:27;23.50;46.10
36690;DHT22;22676;51.120;3.702;2024-01-27T13:34:53;23.60;46.20
36690;DHT22;22676;51.120;3.702;2024-01-27T13:37:20;23.70;46.20
36690;DHT22;22676;51.120;3.702;2024-01-27T13:39:46;23.70;46.40
36690;DHT22;22676;51.120;3.702;2024-01-27T13:42:11;23.80;46.50
36690;DHT22;22676;51.120;3.702;2024-01-27T13:44:37;23.80;46.30
36690;DHT22;22676;51.120;3.702;2024-01-27T13:47:07;23.80;46.10
36690;DHT22;22676;51.120;3.702;2024-01-27T13:49:34;23.80;45.90
36690;DHT22;22676;51.120;3.702;2024-01-27T13:52:00;23.70;46.00
36690;DHT22;22676;51.120;3.702;2024-01-27T13:54:26;23.60;46.00
36690;DHT22;22676;51.120;3.702;2024-01-27T13:56:52;23.60;46.00
36690;DHT22;22676;51.120;3.702;2024-01-27T13:59:17;23.50;45.90
36690;DHT22;22676;51.120;3.702;2024-01-27T14:01:43;23.50;45.80
36690;DHT22;22676;51.120;3.702;2024-01-27T14:04:10;23.40;46.10
36690;DHT22;22676;51.120;3.702;2024-01-27T14:06:35;23.40;46.90
36690;DHT22;22676;51.120;3.702;2024-01-27T14:09:01;23.30;46.20
36690;DHT22;22676;51.120;3.702;2024-01-27T14:11:30;23.30;46.40
36690;DHT22;22676;51.120;3.702;2024-01-27T14:13:56;23.30;46.40
36690;DHT22;22676;51.120;3.702;2024-01-27T14:16:22;23.20;46.40
36690;DHT22;22676;51.120;3.702;2024-01-27T14:18:48;23.20;46.50
36690;DHT22;22676;51.120;3.702;2024-01-27T14:21:14;23.10;46.50
36690;DHT22;22676;51.120;3.702;2024-01-27T14:23:40;23.10;46.30
36690;DHT22;22676;51.120;3.702;2024-01-27T14:26:05;23.00;46.80
36690;DHT22;22676;51.120;3.702;2024-01-27T14:28:33;23.00;47.00
36690;DHT22;22676;51.120;3.702;2024-01-27T14:31:00;23.00;46.70
36690;DHT22;22676;51.120;3.702;2024-01-27T14:33:26;23.00;45.50
36690;DHT22;22676;51.120;3.702;2024-01-27T14:35:51;23.00;45.70
36690;DHT22;22676;51.120;3.702;2024-01-27T14:38:17;22.90;46.30
36690;DHT22;22676;51.120;3.702;2024-01-27T14:40:43;22.90;46.80
36690;DHT22;22676;51.120;3.702;2024-01-27T14:43:08;22.90;47.00
36690;DHT22;22676;51.120;3.702;2024-01-27T14:45:35;22.90;46.90
36690;DHT22;22676;51.120;3.702;2024-01-27T14:48:02;22.90;46.20
36690;DHT22;22676;51.120;3.702;2024-01-27T14:50:28;22.80;45.80
36690;DHT22;22676;51.120;3.702;2024-01-27T14:52:53;22.70;45.70
36690;DHT22;22676;51.120;3.702;2024-01-27T14:55:19;22.80;45.90
36690;DHT22;22676;51.120;3.702;2024-01-27T14:57:45;22.70;45.60
36690;DHT22;22676;51.120;3.702;2024-01-27T15:00:11;22.70;45.30
36690;DHT22;22676;51.120;3.702;2024-01-27T15:02:40;22.70;45.60
36690;DHT22;22676;51.120;3.702;2024-01-27T15:05:06;22.70;45.90
36690;DHT22;22676;51.120;3.702;2024-01-27T15:07:34;22.70;46.30
36690;DHT22;22676;51.120;3.702;2024-01-27T15:10:00;22.70;46.90
36690;DHT22;22676;51.120;3.702;2024-01-27T15:12:25;22.70;46.70
36690;DHT22;22676;51.120;3.702;2024-01-27T15:14:51;22.70;47.00
36690;DHT22;22676;51.120;3.702;2024-01-27T15:17:20;22.70;47.30
36690;DHT22;22676;51.120;3.702;2024-01-27T15:19:47;22.70;47.60
36690;DHT22;22676;51.120;3.702;2024-01-27T15:22:13;22.60;47.50
36690;DHT22;22676;51.120;3.702;2024-01-27T15:24:38;22.60;47.70
36690;DHT22;22676;51.120;3.702;2024-01-27T15:27:04;22.60;47.60